sensor_id;sensor_type;location;lat;lon;timestamp;temperature;humidity
5278;DHT22;2662;51.194;6.614;2022-10-16T00:02:12;15.40;99.90
5278;DHT22;2662;51.194;6.614;2022-10-16T00:04:39;15.40;99.90
5278;DHT22;2662;51.194;6.614;2022-10-16T00:07:05;15.40;99.90
5278;DHT22;2662;51.194;6.614;2022-10-16T00:09:32;15.40;99.90
5278;DHT22;2662;51.194;6.614;2022-10-16T00:12:00;15.40;99.90
5278;DHT22;2662;51.194;6.614;2022-10-16T00:14:29;15.40;99.90
5278;DHT22;2662;51.194;6.614;2022-10-16T00:16:56;15.50;99.90
5278;DHT22;2662;51.194;6.614;2022-10-16T00:19:22;15.40;99.90
5278;DHT22;2662;51.194;6.614;2022-10-16T00:21:49;15.30;99.90
5278;DHT22;2662;51.194;6.614;2022-10-16T00:24:16;15.30;99.90
5278;DHT22;2662;51.194;6.614;2022-10-16T00:26:43;15.30;99.90
5278;DHT22;2662;51.194;6.614;2022-10-16T00:29:11;15.30;99.90
5278;DHT22;2662;51.194;6.614;2022-10-16T00:31:37;15.20;99.90
5278;DHT22;2662;51.194;6.614;2022-10-16T00:34:04;15.20;99.90
5278;DHT22;2662;51.194;6.614;2022-10-16T00:36:31;15.20;99.90
5278;DHT22;2662;51.194;6.614;2022-10-16T00:38:58;15.20;99.90
5278;DHT22;2662;51.194;6.614;2022-10-16T00:41:27;15.20;99.90
5278;DHT22;2662;51.194;6.614;2022-10-16T00:43:55;15.20;99.90
5278;DHT22;2662;51.194;6.614;2022-10-16T00:46:26;15.20;99.90
5278;DHT22;2662;51.194;6.614;2022-10-16T00:48:59;15.20;99.90
5278;DHT22;2662;51.194;6.614;2022-10-16T00:51:31;15.20;99.90
5278;DHT22;2662;51.194;6.614;2022-10-16T00:53:59;15.20;99.90
5278;DHT22;2662;51.194;6.614;2022-10-16T00:56:26;15.20;99.90
5278;DHT22;2662;51.194;6.614;2022-10-16T00:58:53;15.20;99.90
5278;DHT22;2662;51.194;6.614;2022-10-16T01:01:20;15.10;99.90
5278;DHT22;2662;51.194;6.614;2022-10-16T01:03:48;15.20;99.90
5278;DHT22;2662;51.194;6.614;2022-10-16T01:06:23;15.10;99.90
5278;DHT22;2662;51.194;6.614;2022-10-16T01:09:03;15.10;99.90
5278;DHT22;2662;51.194;6.614;2022-10-16T01:11:35;15.10;99.90
5278;DHT22;2662;51.194;6.614;2022-10-16T01:14:13;15.10;99.90
5278;DHT22;2662;51.194;6.614;2022-10-16T01:16:44;15.10;99.90
5278;DHT22;2662;51.194;6.614;2022-10-16T01:19:20;15.10;99.90
5278;DHT22;2662;51.194;6.614;2022-10-16T01:21:53;15.10;99.90
5278;DHT22;2662;51.194;6.614;2022-10-16T01:24:31;15.10;99.90
5278;DHT22;2662;51.194;6.614;2022-10-16T01:27:13;15.10;99.90
5278;DHT22;2662;51.194;6.614;2022-10-16T01:29:48;15.10;99.90
5278;DHT22;2662;51.194;6.614;2022-10-16T01:32:18;15.10;99.90
5278;DHT22;2662;51.194;6.614;2022-10-16T01:34:51;15.10;99.90
5278;DHT22;2662;51.194;6.614;2022-10-16T01:37:25;15.20;99.90
5278;DHT22;2662;51.194;6.614;2022-10-16T01:39:58;15.20;99.90
5278;DHT22;2662;51.194;6.614;2022-10-16T01:42:33;15.20;99.90
5278;DHT22;2662;51.194;6.614;2022-10-16T01:45:01;15.20;99.90
5278;DHT22;2662;51.194;6.614;2022-10-16T01:47:30;15.20;99.90
5278;DHT22;2662;51.194;6.614;2022-10-16T01:49:58;15.30;99.90
5278;DHT22;2662;51.194;6.614;2022-10-16T01:52:28;15.30;99.90
5278;DHT22;2662;51.194;6.614;2022-10-16T01:54:56;15.30;99.90
5278;DHT22;2662;51.194;6.614;2022-10-16T01:57:25;15.40;99.90
5278;DHT22;2662;51.194;6.614;2022-10-16T01:59:56;15.40;99.90
5278;DHT22;2662;51.194;6.614;2022-10-16T02:02:27;15.40;99.90
5278;DHT22;2662;51.194;6.614;2022-10-16T02:04:59;15.40;99.90
5278;DHT22;2662;51.194;6.614;2022-10-16T02:07:28;15.40;99.90
5278;DHT22;2662;51.194;6.614;2022-10-16T02:09:55;15.40;99.90
5278;DHT22;2662;51.194;6.614;2022-10-16T02:12:25;15.40;99.90
5278;DHT22;2662;51.194;6.614;2022-10-16T02:14:54;15.50;99.90
5278;DHT22;2662;51.194;6.614;2022-10-16T02:17:22;15.50;99.90
5278;DHT22;2662;51.194;6.614;2022-10-16T02:19:51;15.50;99.90
5278;DHT22;2662;51.194;6.614;2022-10-16T02:22:22;15.50;99.90
5278;DHT22;2662;51.194;6.614;2022-10-16T02:24:53;15.50;99.90
5278;DHT22;2662;51.194;6.614;2022-10-16T02:27:24;15.60;99.90
5278;DHT22;2662;51.194;6.614;2022-10-16T02:30:02;15.70;99.90
5278;DHT22;2662;51.194;6.614;2022-10-16T02:32:34;15.60;99.90
5278;DHT22;2662;51.194;6.614;2022-10-16T02:35:02;15.60;99.90
5278;DHT22;2662;51.194;6.614;2022-10-16T02:37:31;15.60;99.90
5278;DHT22;2662;51.194;6.614;2022-10-16T02:39:58;15.60;99.90
5278;DHT22;2662;51.194;6.614;2022-10-16T02:42:28;15.70;99.90
5278;DHT22;2662;51.194;6.614;2022-10-16T02:44:57;15.70;99.90
5278;DHT22;2662;51.194;6.614;2022-10-16T02:47:24;15.70;99.90
5278;DHT22;2662;51.194;6.614;2022-10-16T02:49:51;15.70;99.90
5278;DHT22;2662;51.194;6.614;2022-10-16T02:52:18;15.70;99.90
5278;DHT22;2662;51.194;6.614;2022-10-16T02:54:44;15.80;99.90
5278;DHT22;2662;51.194;6.614;2022-10-16T02:57:11;15.80;99.90
5278;DHT22;2662;51.194;6.614;2022-10-16T02:59:38;15.80;99.90
5278;DHT22;2662;51.194;6.614;2022-10-16T03:02:06;15.70;99.90
5278;DHT22;2662;51.194;6.614;2022-10-16T03:04:33;15.60;99.90
5278;DHT22;2662;51.194;6.614;2022-10-16T03:06:59;15.50;99.90
5278;DHT22;2662;51.194;6.614;2022-10-16T03:09:26;15.40;99.90
5278;DHT22;2662;51.194;6.614;2022-10-16T03:11:53;15.30;99.90
5278;DHT22;2662;51.194;6.614;2022-10-16T03:14:19;15.30;99.90
5278;DHT22;2662;51.194;6.614;2022-10-16T03:16:46;15.20;99.90
5278;DHT22;2662;51.194;6.614;2022-10-16T03:19:16;15.20;99.90
5278;DHT22;2662;51.194;6.614;2022-10-16T03:21:43;15.10;99.90
5278;DHT22;2662;51.194;6.614;2022-10-16T03:24:10;15.10;99.90
5278;DHT22;2662;51.194;6.614;2022-10-16T03:26:36;15.10;99.90
5278;DHT22;2662;51.194;6.614;2022-10-16T03:29:03;15.10;99.90
5278;DHT22;2662;51.194;6.614;2022-10-16T03:31:30;15.10;99.90
5278;DHT22;2662;51.194;6.614;2022-10-16T03:33:57;15.00;99.90
5278;DHT22;2662;51.194;6.614;2022-10-16T03:36:25;15.00;99.90
5278;DHT22;2662;51.194;6.614;2022-10-16T03:38:52;15.00;99.90
5278;DHT22;2662;51.194;6.614;2022-10-16T03:41:19;15.00;99.90
5278;DHT22;2662;51.194;6.614;2022-10-16T03:43:45;15.00;99.90
5278;DHT22;2662;51.194;6.614;2022-10-16T03:46:12;14.90;99.90
5278;DHT22;2662;51.194;6.614;2022-10-16T03:48:39;14.90;99.90
5278;DHT22;2662;51.194;6.614;2022-10-16T03:51:06;14.80;99.90
5278;DHT22;2662;51.194;6.614;2022-10-16T03:53:34;14.80;99.90
5278;DHT22;2662;51.194;6.614;2022-10-16T03:56:01;14.70;99.90
5278;DHT22;2662;51.194;6.614;2022-10-16T03:58:33;14.60;99.90
5278;DHT22;2662;51.194;6.614;2022-10-16T04:01:00;14.60;99.90
5278;DHT22;2662;51.194;6.614;2022-10-16T04:03:27;14.50;99.90
5278;DHT22;2662;51.194;6.614;2022-10-16T04:05:53;14.50;99.90
5278;DHT22;2662;51.194;6.614;2022-10-16T04:08:20;14.50;99.90
5278;DHT22;2662;51.194;6.614;2022-10-16T04:10:48;14.40;99.90
5278;DHT22;2662;51.194;6.614;2022-10-16T04:13:16;14.40;99.90
5278;DHT22;2662;51.194;6.614;2022-10-16T04:15:44;14.40;99.90
5278;DHT22;2662;51.194;6.614;2022-10-16T04:18:10;14.40;99.90
5278;DHT22;2662;51.194;6.614;2022-10-16T04:20:37;14.40;99.90
5278;DHT22;2662;51.194;6.614;2022-10-16T04:23:04;14.40;99.90
5278;DHT22;2662;51.194;6.614;2022-10-16T04:25:31;14.40;99.90
5278;DHT22;2662;51.194;6.614;2022-10-16T04:27:59;14.40;99.90
5278;DHT22;2662;51.194;6.614;2022-10-16T04:30:26;14.40;99.90
5278;DHT22;2662;51.194;6.614;2022-10-16T04:32:53;14.40;99.90
5278;DHT22;2662;51.194;6.614;2022-10-16T04:35:21;14.40;99.90
5278;DHT22;2662;51.194;6.614;2022-10-16T04:37:47;14.40;99.90
5278;DHT22;2662;51.194;6.614;2022-10-16T04:40:14;14.40;99.90
5278;DHT22;2662;51.194;6.614;2022-10-16T04:42:41;14.30;99.90
5278;DHT22;2662;51.194;6.614;2022-10-16T04:45:09;14.30;99.90
5278;DHT22;2662;51.194;6.614;2022-10-16T04:47:36;14.30;99.90
5278;DHT22;2662;51.194;6.614;2022-10-16T04:50:04;14.40;99.90
5278;DHT22;2662;51.194;6.614;2022-10-16T04:52:31;14.40;99.90
5278;DHT22;2662;51.194;6.614;2022-10-16T04:54:58;14.40;99.90
5278;DHT22;2662;51.194;6.614;2022-10-16T04:57:27;14.40;99.90
5278;DHT22;2662;51.194;6.614;2022-10-16T04:59:54;14.30;99.90
5278;DHT22;2662;51.194;6.614;2022-10-16T05:02:22;14.30;99.90
5278;DHT22;2662;51.194;6.614;2022-10-16T05:04:49;14.30;99.90
5278;DHT22;2662;51.194;6.614;2022-10-16T05:07:16;14.30;99.90
5278;DHT22;2662;51.194;6.614;2022-10-16T05:09:42;14.30;99.90
5278;DHT22;2662;51.194;6.614;2022-10-16T05:12:09;14.30;99.90
5278;DHT22;2662;51.194;6.614;2022-10-16T05:14:36;14.30;99.90
5278;DHT22;2662;51.194;6.614;2022-10-16T05:17:02;14.20;99.90
5278;DHT22;2662;51.194;6.614;2022-10-16T05:19:30;14.20;99.90
5278;DHT22;2662;51.194;6.614;2022-10-16T05:21:57;14.20;99.90
5278;DHT22;2662;51.194;6.614;2022-10-16T05:24:24;14.20;99.90
5278;DHT22;2662;51.194;6.614;2022-10-16T05:26:51;14.20;99.90
5278;DHT22;2662;51.194;6.614;2022-10-16T05:29:18;14.20;99.90
5278;DHT22;2662;51.194;6.614;2022-10-16T05:31:44;14.20;99.90
5278;DHT22;2662;51.194;6.614;2022-10-16T05:34:11;14.20;99.90
5278;DHT22;2662;51.194;6.614;2022-10-16T05:36:39;14.20;99.90
5278;DHT22;2662;51.194;6.614;2022-10-16T05:39:06;14.20;99.90
5278;DHT22;2662;51.194;6.614;2022-10-16T05:41:32;14.20;99.90
5278;DHT22;2662;51.194;6.614;2022-10-16T05:43:59;14.20;99.90
5278;DHT22;2662;51.194;6.614;2022-10-16T05:46:26;14.20;99.90
5278;DHT22;2662;51.194;6.614;2022-10-16T05:48:53;14.20;99.90
5278;DHT22;2662;51.194;6.614;2022-10-16T05:51:19;14.20;99.90
5278;DHT22;2662;51.194;6.614;2022-10-16T05:53:47;14.20;99.90
5278;DHT22;2662;51.194;6.614;2022-10-16T05:56:14;14.10;99.90
5278;DHT22;2662;51.194;6.614;2022-10-16T05:58:41;14.10;99.90
5278;DHT22;2662;51.194;6.614;2022-10-16T06:01:11;14.10;99.90
5278;DHT22;2662;51.194;6.614;2022-10-16T06:03:39;14.10;99.90
5278;DHT22;2662;51.194;6.614;2022-10-16T06:06:12;14.10;99.90
5278;DHT22;2662;51.194;6.614;2022-10-16T06:08:40;14.10;99.90
5278;DHT22;2662;51.194;6.614;2022-10-16T06:11:14;14.20;99.90
5278;DHT22;2662;51.194;6.614;2022-10-16T06:13:41;14.20;99.90
5278;DHT22;2662;51.194;6.614;2022-10-16T06:16:09;14.30;99.90
5278;DHT22;2662;51.194;6.614;2022-10-16T06:18:36;14.30;99.90
5278;DHT22;2662;51.194;6.614;2022-10-16T06:21:07;14.30;99.90
5278;DHT22;2662;51.194;6.614;2022-10-16T06:23:34;14.40;99.90
5278;DHT22;2662;51.194;6.614;2022-10-16T06:26:05;14.40;99.90
5278;DHT22;2662;51.194;6.614;2022-10-16T06:28:33;14.50;99.90
5278;DHT22;2662;51.194;6.614;2022-10-16T06:31:00;14.60;99.90
5278;DHT22;2662;51.194;6.614;2022-10-16T06:33:27;14.70;99.90
5278;DHT22;2662;51.194;6.614;2022-10-16T06:35:54;14.70;99.90
5278;DHT22;2662;51.194;6.614;2022-10-16T06:38:26;14.80;99.90
5278;DHT22;2662;51.194;6.614;2022-10-16T06:40:53;14.90;99.90
5278;DHT22;2662;51.194;6.614;2022-10-16T06:43:20;14.90;99.90
5278;DHT22;2662;51.194;6.614;2022-10-16T06:45:51;15.10;99.90
5278;DHT22;2662;51.194;6.614;2022-10-16T06:48:19;15.20;99.90
5278;DHT22;2662;51.194;6.614;2022-10-16T06:50:55;15.30;99.90
5278;DHT22;2662;51.194;6.614;2022-10-16T06:53:22;15.40;99.90
5278;DHT22;2662;51.194;6.614;2022-10-16T06:55:49;15.50;99.90
5278;DHT22;2662;51.194;6.614;2022-10-16T06:58:16;15.60;99.90
5278;DHT22;2662;51.194;6.614;2022-10-16T07:00:43;15.70;99.90
5278;DHT22;2662;51.194;6.614;2022-10-16T07:03:11;15.80;99.90
5278;DHT22;2662;51.194;6.614;2022-10-16T07:05:38;15.80;99.90
5278;DHT22;2662;51.194;6.614;2022-10-16T07:08:05;15.80;99.90
5278;DHT22;2662;51.194;6.614;2022-10-16T07:10:31;15.80;99.90
5278;DHT22;2662;51.194;6.614;2022-10-16T07:12:58;15.80;99.90
5278;DHT22;2662;51.194;6.614;2022-10-16T07:15:25;15.70;99.90
5278;DHT22;2662;51.194;6.614;2022-10-16T07:17:52;15.70;99.90
5278;DHT22;2662;51.194;6.614;2022-10-16T07:20:21;15.60;99.90
5278;DHT22;2662;51.194;6.614;2022-10-16T07:22:47;15.70;99.90
5278;DHT22;2662;51.194;6.614;2022-10-16T07:25:14;15.70;99.90
5278;DHT22;2662;51.194;6.614;2022-10-16T07:27:41;16.00;99.90
5278;DHT22;2662;51.194;6.614;2022-10-16T07:30:08;16.30;99.90
5278;DHT22;2662;51.194;6.614;2022-10-16T07:32:35;16.20;99.90
5278;DHT22;2662;51.194;6.614;2022-10-16T07:35:02;16.30;99.90
5278;DHT22;2662;51.194;6.614;2022-10-16T07:37:30;16.80;99.90
5278;DHT22;2662;51.194;6.614;2022-10-16T07:39:57;17.60;99.90
5278;DHT22;2662;51.194;6.614;2022-10-16T07:42:23;18.40;99.90
5278;DHT22;2662;51.194;6.614;2022-10-16T07:44:50;19.20;99.90
5278;DHT22;2662;51.194;6.614;2022-10-16T07:47:17;19.70;99.90
5278;DHT22;2662;51.194;6.614;2022-10-16T07:49:43;19.90;99.90
5278;DHT22;2662;51.194;6.614;2022-10-16T07:52:10;20.10;99.90
5278;DHT22;2662;51.194;6.614;2022-10-16T07:54:38;20.40;99.90
5278;DHT22;2662;51.194;6.614;2022-10-16T07:57:05;21.20;99.90
5278;DHT22;2662;51.194;6.614;2022-10-16T07:59:31;21.80;99.90
5278;DHT22;2662;51.194;6.614;2022-10-16T08:01:58;22.50;99.90
5278;DHT22;2662;51.194;6.614;2022-10-16T08:04:25;23.30;99.90
5278;DHT22;2662;51.194;6.614;2022-10-16T08:06:51;23.40;99.90
5278;DHT22;2662;51.194;6.614;2022-10-16T08:09:19;23.60;99.90
5278;DHT22;2662;51.194;6.614;2022-10-16T08:11:47;24.20;99.90
5278;DHT22;2662;51.194;6.614;2022-10-16T08:14:14;24.00;99.90
5278;DHT22;2662;51.194;6.614;2022-10-16T08:16:41;24.00;99.90
5278;DHT22;2662;51.194;6.614;2022-10-16T08:19:08;23.90;99.90
5278;DHT22;2662;51.194;6.614;2022-10-16T08:21:34;23.30;99.90
5278;DHT22;2662;51.194;6.614;2022-10-16T08:24:01;23.00;99.90
5278;DHT22;2662;51.194;6.614;2022-10-16T08:26:29;23.00;99.90
5278;DHT22;2662;51.194;6.614;2022-10-16T08:28:57;23.40;99.90
5278;DHT22;2662;51.194;6.614;2022-10-16T08:31:24;23.50;99.90
5278;DHT22;2662;51.194;6.614;2022-10-16T08:33:51;23.40;99.90
5278;DHT22;2662;51.194;6.614;2022-10-16T08:36:18;23.40;99.90
5278;DHT22;2662;51.194;6.614;2022-10-16T08:38:47;23.40;99.90
5278;DHT22;2662;51.194;6.614;2022-10-16T08:41:24;23.60;99.90
5278;DHT22;2662;51.194;6.614;2022-10-16T08:44:20;23.50;99.90
5278;DHT22;2662;51.194;6.614;2022-10-16T08:46:54;23.50;99.90
5278;DHT22;2662;51.194;6.614;2022-10-16T08:49:22;23.50;99.90
5278;DHT22;2662;51.194;6.614;2022-10-16T08:51:50;24.00;99.90
5278;DHT22;2662;51.194;6.614;2022-10-16T08:54:26;24.10;99.90
5278;DHT22;2662;51.194;6.614;2022-10-16T08:56:55;24.70;99.90
5278;DHT22;2662;51.194;6.614;2022-10-16T08:59:23;25.00;99.90
5278;DHT22;2662;51.194;6.614;2022-10-16T09:01:51;25.60;99.90
5278;DHT22;2662;51.194;6.614;2022-10-16T09:04:39;25.90;99.90
5278;DHT22;2662;51.194;6.614;2022-10-16T09:07:13;26.10;99.90
5278;DHT22;2662;51.194;6.614;2022-10-16T09:09:58;26.20;99.90
5278;DHT22;2662;51.194;6.614;2022-10-16T09:12:33;26.40;99.90
5278;DHT22;2662;51.194;6.614;2022-10-16T09:15:15;25.80;99.90
5278;DHT22;2662;51.194;6.614;2022-10-16T09:17:49;26.00;99.90
5278;DHT22;2662;51.194;6.614;2022-10-16T09:20:32;26.40;99.90
5278;DHT22;2662;51.194;6.614;2022-10-16T09:23:16;26.70;99.90
5278;DHT22;2662;51.194;6.614;2022-10-16T09:25:50;26.80;99.90
5278;DHT22;2662;51.194;6.614;2022-10-16T09:28:17;26.90;99.90
5278;DHT22;2662;51.194;6.614;2022-10-16T09:30:46;26.70;99.90
5278;DHT22;2662;51.194;6.614;2022-10-16T09:33:14;26.60;99.90
5278;DHT22;2662;51.194;6.614;2022-10-16T09:35:43;26.70;99.90
5278;DHT22;2662;51.194;6.614;2022-10-16T09:38:21;26.70;99.90
5278;DHT22;2662;51.194;6.614;2022-10-16T09:40:49;27.00;99.90
5278;DHT22;2662;51.194;6.614;2022-10-16T09:43:24;27.10;99.90
5278;DHT22;2662;51.194;6.614;2022-10-16T09:45:56;26.50;99.90
5278;DHT22;2662;51.194;6.614;2022-10-16T09:48:25;26.10;99.90
5278;DHT22;2662;51.194;6.614;2022-10-16T09:50:57;25.70;99.90
5278;DHT22;2662;51.194;6.614;2022-10-16T09:53:23;25.20;99.90
5278;DHT22;2662;51.194;6.614;2022-10-16T09:55:51;25.10;99.90
5278;DHT22;2662;51.194;6.614;2022-10-16T09:58:20;24.80;99.90
5278;DHT22;2662;51.194;6.614;2022-10-16T10:00:52;24.60;99.90
5278;DHT22;2662;51.194;6.614;2022-10-16T10:03:35;24.30;99.90
5278;DHT22;2662;51.194;6.614;2022-10-16T10:06:07;24.30;99.90
5278;DHT22;2662;51.194;6.614;2022-10-16T10:08:41;24.80;99.90
5278;DHT22;2662;51.194;6.614;2022-10-16T10:11:08;25.00;99.90
5278;DHT22;2662;51.194;6.614;2022-10-16T10:13:34;24.40;99.90
5278;DHT22;2662;51.194;6.614;2022-10-16T10:16:01;23.70;99.90
5278;DHT22;2662;51.194;6.614;2022-10-16T10:18:28;23.40;99.90
5278;DHT22;2662;51.194;6.614;2022-10-16T10:20:59;23.30;99.90
5278;DHT22;2662;51.194;6.614;2022-10-16T10:23:28;22.60;99.90
5278;DHT22;2662;51.194;6.614;2022-10-16T10:26:02;22.20;99.90
5278;DHT22;2662;51.194;6.614;2022-10-16T10:28:52;21.90;99.90
5278;DHT22;2662;51.194;6.614;2022-10-16T10:31:26;21.50;99.90
5278;DHT22;2662;51.194;6.614;2022-10-16T10:33:57;21.30;99.90
5278;DHT22;2662;51.194;6.614;2022-10-16T10:36:33;21.30;99.90
5278;DHT22;2662;51.194;6.614;2022-10-16T10:39:02;21.10;99.90
5278;DHT22;2662;51.194;6.614;2022-10-16T10:41:56;21.00;99.90
5278;DHT22;2662;51.194;6.614;2022-10-16T10:44:35;20.80;99.90
5278;DHT22;2662;51.194;6.614;2022-10-16T10:47:10;20.90;99.90
5278;DHT22;2662;51.194;6.614;2022-10-16T10:49:52;20.90;99.90
5278;DHT22;2662;51.194;6.614;2022-10-16T10:52:38;20.90;99.90
5278;DHT22;2662;51.194;6.614;2022-10-16T10:55:17;20.90;99.90
5278;DHT22;2662;51.194;6.614;2022-10-16T10:58:14;21.00;99.90
5278;DHT22;2662;51.194;6.614;2022-10-16T11:00:50;21.10;99.90
5278;DHT22;2662;51.194;6.614;2022-10-16T11:03:32;21.20;99.90
5278;DHT22;2662;51.194;6.614;2022-10-16T11:06:05;21.20;99.90
5278;DHT22;2662;51.194;6.614;2022-10-16T11:08:36;21.20;99.90
5278;DHT22;2662;51.194;6.614;2022-10-16T11:11:06;21.30;99.90
5278;DHT22;2662;51.194;6.614;2022-10-16T11:13:36;21.30;99.90
5278;DHT22;2662;51.194;6.614;2022-10-16T11:16:11;21.40;99.90
5278;DHT22;2662;51.194;6.614;2022-10-16T11:18:47;21.30;99.90
5278;DHT22;2662;51.194;6.614;2022-10-16T11:21:18;21.40;99.90
5278;DHT22;2662;51.194;6.614;2022-10-16T11:23:51;21.60;99.90
5278;DHT22;2662;51.194;6.614;2022-10-16T11:26:23;21.70;99.90
5278;DHT22;2662;51.194;6.614;2022-10-16T11:28:53;21.70;99.90
5278;DHT22;2662;51.194;6.614;2022-10-16T11:31:24;21.80;99.90
5278;DHT22;2662;51.194;6.614;2022-10-16T11:33:57;21.90;99.90
5278;DHT22;2662;51.194;6.614;2022-10-16T11:36:33;21.90;99.90
5278;DHT22;2662;51.194;6.614;2022-10-16T11:39:09;21.90;99.90
5278;DHT22;2662;51.194;6.614;2022-10-16T11:41:42;21.90;99.90
5278;DHT22;2662;51.194;6.614;2022-10-16T11:44:20;21.90;99.90
5278;DHT22;2662;51.194;6.614;2022-10-16T11:46:53;21.90;99.90
5278;DHT22;2662;51.194;6.614;2022-10-16T11:49:26;21.90;99.90
5278;DHT22;2662;51.194;6.614;2022-10-16T11:52:01;21.80;99.90
5278;DHT22;2662;51.194;6.614;2022-10-16T11:54:37;21.50;99.90
5278;DHT22;2662;51.194;6.614;2022-10-16T11:57:12;21.40;99.90
5278;DHT22;2662;51.194;6.614;2022-10-16T11:59:45;21.60;99.90
5278;DHT22;2662;51.194;6.614;2022-10-16T12:02:33;21.70;99.90
5278;DHT22;2662;51.194;6.614;2022-10-16T12:05:12;21.80;99.90
5278;DHT22;2662;51.194;6.614;2022-10-16T12:07:48;22.00;99.90
5278;DHT22;2662;51.194;6.614;2022-10-16T12:10:23;22.10;99.90
5278;DHT22;2662;51.194;6.614;2022-10-16T12:12:51;22.20;99.90
5278;DHT22;2662;51.194;6.614;2022-10-16T12:15:21;22.40;99.90
5278;DHT22;2662;51.194;6.614;2022-10-16T12:17:49;22.50;99.90
5278;DHT22;2662;51.194;6.614;2022-10-16T12:20:26;22.50;99.90
5278;DHT22;2662;51.194;6.614;2022-10-16T12:22:55;22.60;99.90
5278;DHT22;2662;51.194;6.614;2022-10-16T12:25:26;22.60;99.90
5278;DHT22;2662;51.194;6.614;2022-10-16T12:27:55;22.70;99.90
5278;DHT22;2662;51.194;6.614;2022-10-16T12:30:23;22.80;99.90
5278;DHT22;2662;51.194;6.614;2022-10-16T12:32:55;22.80;99.90
5278;DHT22;2662;51.194;6.614;2022-10-16T12:35:23;22.80;99.90
5278;DHT22;2662;51.194;6.614;2022-10-16T12:37:51;22.80;99.90
5278;DHT22;2662;51.194;6.614;2022-10-16T12:40:32;22.80;99.90
5278;DHT22;2662;51.194;6.614;2022-10-16T12:42:59;22.90;99.90
5278;DHT22;2662;51.194;6.614;2022-10-16T12:45:37;23.00;99.90
5278;DHT22;2662;51.194;6.614;2022-10-16T12:48:18;22.90;99.90
5278;DHT22;2662;51.194;6.614;2022-10-16T12:50:45;23.00;99.90
5278;DHT22;2662;51.194;6.614;2022-10-16T12:53:20;23.10;99.90
5278;DHT22;2662;51.194;6.614;2022-10-16T12:55:56;23.00;99.90
5278;DHT22;2662;51.194;6.614;2022-10-16T13:01:34;22.90;99.90
5278;DHT22;2662;51.194;6.614;2022-10-16T13:04:29;22.90;99.90
5278;DHT22;2662;51.194;6.614;2022-10-16T13:07:09;22.80;99.90
5278;DHT22;2662;51.194;6.614;2022-10-16T13:09:51;22.80;99.90
5278;DHT22;2662;51.194;6.614;2022-10-16T13:12:32;22.90;99.90
5278;DHT22;2662;51.194;6.614;2022-10-16T13:15:22;23.10;99.90
5278;DHT22;2662;51.194;6.614;2022-10-16T13:17:58;23.10;99.90
5278;DHT22;2662;51.194;6.614;2022-10-16T13:20:34;23.30;99.90
5278;DHT22;2662;51.194;6.614;2022-10-16T13:23:11;23.30;99.90
5278;DHT22;2662;51.194;6.614;2022-10-16T13:25:47;23.20;99.90
5278;DHT22;2662;51.194;6.614;2022-10-16T13:28:22;23.20;99.90
5278;DHT22;2662;51.194;6.614;2022-10-16T13:30:52;23.10;99.90
5278;DHT22;2662;51.194;6.614;2022-10-16T13:33:23;23.10;99.90
5278;DHT22;2662;51.194;6.614;2022-10-16T13:35:54;23.10;99.90
5278;DHT22;2662;51.194;6.614;2022-10-16T13:38:23;23.30;99.90
5278;DHT22;2662;51.194;6.614;2022-10-16T13:40:53;23.40;99.90
5278;DHT22;2662;51.194;6.614;2022-10-16T13:43:24;23.40;99.90
5278;DHT22;2662;51.194;6.614;2022-10-16T13:45:53;23.20;99.90
5278;DHT22;2662;51.194;6.614;2022-10-16T13:48:20;23.10;99.90
5278;DHT22;2662;51.194;6.614;2022-10-16T13:50:58;23.10;99.90
5278;DHT22;2662;51.194;6.614;2022-10-16T13:53:25;23.30;99.90
5278;DHT22;2662;51.194;6.614;2022-10-16T13:55:52;23.40;99.90
5278;DHT22;2662;51.194;6.614;2022-10-16T13:58:19;23.40;99.90
5278;DHT22;2662;51.194;6.614;2022-10-16T14:00:56;23.10;99.90
5278;DHT22;2662;51.194;6.614;2022-10-16T14:03:24;22.80;99.90
5278;DHT22;2662;51.194;6.614;2022-10-16T14:05:53;22.60;99.90
5278;DHT22;2662;51.194;6.614;2022-10-16T14:08:20;22.50;99.90
5278;DHT22;2662;51.194;6.614;2022-10-16T14:10:49;22.50;99.90
5278;DHT22;2662;51.194;6.614;2022-10-16T14:13:19;22.50;99.90
5278;DHT22;2662;51.194;6.614;2022-10-16T14:15:47;22.50;99.90
5278;DHT22;2662;51.194;6.614;2022-10-16T14:18:19;22.50;99.90
5278;DHT22;2662;51.194;6.614;2022-10-16T14:20:48;22.50;99.90
5278;DHT22;2662;51.194;6.614;2022-10-16T14:23:21;22.70;99.90
5278;DHT22;2662;51.194;6.614;2022-10-16T14:25:48;22.80;99.90
5278;DHT22;2662;51.194;6.614;2022-10-16T14:28:17;22.90;99.90
5278;DHT22;2662;51.194;6.614;2022-10-16T14:30:52;22.90;99.90
5278;DHT22;2662;51.194;6.614;2022-10-16T14:33:23;22.80;99.90
5278;DHT22;2662;51.194;6.614;2022-10-16T14:36:03;22.70;99.90
5278;DHT22;2662;51.194;6.614;2022-10-16T14:38:30;22.60;99.90
5278;DHT22;2662;51.194;6.614;2022-10-16T14:40:58;22.40;99.90
5278;DHT22;2662;51.194;6.614;2022-10-16T14:43:31;22.40;99.90
5278;DHT22;2662;51.194;6.614;2022-10-16T14:45:59;22.40;99.90
5278;DHT22;2662;51.194;6.614;2022-10-16T14:48:27;22.40;99.90
5278;DHT22;2662;51.194;6.614;2022-10-16T14:50:54;22.50;99.90
5278;DHT22;2662;51.194;6.614;2022-10-16T14:53:21;22.50;99.90
5278;DHT22;2662;51.194;6.614;2022-10-16T14:55:48;22.50;99.90
5278;DHT22;2662;51.194;6.614;2022-10-16T14:58:17;22.40;99.90
5278;DHT22;2662;51.194;6.614;2022-10-16T15:00:44;22.30;99.90
5278;DHT22;2662;51.194;6.614;2022-10-16T15:03:11;22.30;99.90
5278;DHT22;2662;51.194;6.614;2022-10-16T15:05:39;22.30;99.90
5278;DHT22;2662;51.194;6.614;2022-10-16T15:08:06;22.20;99.90
5278;DHT22;2662;51.194;6.614;2022-10-16T15:10:37;22.10;99.90
5278;DHT22;2662;51.194;6.614;2022-10-16T15:13:05;22.10;99.90
5278;DHT22;2662;51.194;6.614;2022-10-16T15:15:34;21.90;99.90
5278;DHT22;2662;51.194;6.614;2022-10-16T15:18:02;21.80;99.90
5278;DHT22;2662;51.194;6.614;2022-10-16T15:20:30;21.40;99.90
5278;DHT22;2662;51.194;6.614;2022-10-16T15:23:01;20.90;99.90
5278;DHT22;2662;51.194;6.614;2022-10-16T15:25:32;20.70;99.90
5278;DHT22;2662;51.194;6.614;2022-10-16T15:28:00;20.40;99.90
5278;DHT22;2662;51.194;6.614;2022-10-16T15:30:27;20.30;99.90
5278;DHT22;2662;51.194;6.614;2022-10-16T15:32:54;20.30;99.90
5278;DHT22;2662;51.194;6.614;2022-10-16T15:35:21;20.10;99.90
5278;DHT22;2662;51.194;6.614;2022-10-16T15:37:48;20.00;99.90
5278;DHT22;2662;51.194;6.614;2022-10-16T15:40:18;20.10;99.90
5278;DHT22;2662;51.194;6.614;2022-10-16T15:42:45;20.10;99.90
5278;DHT22;2662;51.194;6.614;2022-10-16T15:45:12;20.10;99.90
5278;DHT22;2662;51.194;6.614;2022-10-16T15:47:40;20.10;99.90
5278;DHT22;2662;51.194;6.614;2022-10-16T15:50:10;20.20;99.90
5278;DHT22;2662;51.194;6.614;2022-10-16T15:52:37;20.20;99.90
5278;DHT22;2662;51.194;6.614;2022-10-16T15:55:06;20.20;99.90
5278;DHT22;2662;51.194;6.614;2022-10-16T15:57:34;20.20;99.90
5278;DHT22;2662;51.194;6.614;2022-10-16T16:00:05;20.20;99.90
5278;DHT22;2662;51.194;6.614;2022-10-16T16:02:32;20.20;99.90
5278;DHT22;2662;51.194;6.614;2022-10-16T16:04:58;20.20;99.90
5278;DHT22;2662;51.194;6.614;2022-10-16T16:07:25;20.20;99.90
5278;DHT22;2662;51.194;6.614;2022-10-16T16:09:52;20.20;99.90
5278;DHT22;2662;51.194;6.614;2022-10-16T16:12:19;20.20;99.90
5278;DHT22;2662;51.194;6.614;2022-10-16T16:14:47;20.10;99.90
5278;DHT22;2662;51.194;6.614;2022-10-16T16:17:14;20.10;99.90
5278;DHT22;2662;51.194;6.614;2022-10-16T16:19:41;20.00;99.90
5278;DHT22;2662;51.194;6.614;2022-10-16T16:22:08;20.00;99.90
5278;DHT22;2662;51.194;6.614;2022-10-16T16:24:35;20.00;99.90